sensor_id;sensor_type;location;lat;lon;timestamp;P1;durP1;ratioP1;P2;durP2;ratioP2
60608;SDS011;48221;53.528;9.884;2022-07-05T00:00:15;0.45;;;0.45;;
60608;SDS011;48221;53.528;9.884;2022-07-05T00:02:41;0.30;;;0.30;;
60608;SDS011;48221;53.528;9.884;2022-07-05T00:05:06;0.40;;;0.40;;
60608;SDS011;48221;53.528;9.884;2022-07-05T00:07:31;0.30;;;0.30;;
60608;SDS011;48221;53.528;9.884;2022-07-05T00:09:57;0.65;;;0.45;;
60608;SDS011;48221;53.528;9.884;2022-07-05T00:12:27;0.40;;;0.40;;
60608;SDS011;48221;53.528;9.884;2022-07-05T00:14:57;0.40;;;0.40;;
60608;SDS011;48221;53.528;9.884;2022-07-05T00:17:23;0.40;;;0.40;;
60608;SDS011;48221;53.528;9.884;2022-07-05T00:19:48;0.40;;;0.28;;
60608;SDS011;48221;53.528;9.884;2022-07-05T00:22:13;0.20;;;0.20;;
60608;SDS011;48221;53.528;9.884;2022-07-05T00:24:39;0.28;;;0.28;;
60608;SDS011;48221;53.528;9.884;2022-07-05T00:27:05;0.40;;;0.40;;
60608;SDS011;48221;53.528;9.884;2022-07-05T00:29:31;0.40;;;0.40;;
60608;SDS011;48221;53.528;9.884;2022-07-05T00:31:56;0.38;;;0.38;;
60608;SDS011;48221;53.528;9.884;2022-07-05T00:34:21;0.20;;;0.20;;
60608;SDS011;48221;53.528;9.884;2022-07-05T00:36:47;0.55;;;0.40;;
60608;SDS011;48221;53.528;9.884;2022-07-05T00:39:12;0.43;;;0.43;;
60608;SDS011;48221;53.528;9.884;2022-07-05T00:41:38;1.08;;;0.43;;
60608;SDS011;48221;53.528;9.884;2022-07-05T00:44:05;1.13;;;0.63;;
60608;SDS011;48221;53.528;9.884;2022-07-05T00:46:32;0.30;;;0.30;;
60608;SDS011;48221;53.528;9.884;2022-07-05T00:48:58;0.30;;;0.30;;
60608;SDS011;48221;53.528;9.884;2022-07-05T00:51:25;0.50;;;0.50;;
60608;SDS011;48221;53.528;9.884;2022-07-05T00:53:51;0.38;;;0.38;;
60608;SDS011;48221;53.528;9.884;2022-07-05T00:56:18;0.45;;;0.30;;
60608;SDS011;48221;53.528;9.884;2022-07-05T00:58:44;0.30;;;0.30;;
60608;SDS011;48221;53.528;9.884;2022-07-05T01:01:10;8.65;;;0.55;;
60608;SDS011;48221;53.528;9.884;2022-07-05T01:03:36;0.50;;;0.50;;
60608;SDS011;48221;53.528;9.884;2022-07-05T01:06:02;0.40;;;0.40;;
60608;SDS011;48221;53.528;9.884;2022-07-05T01:08:31;0.50;;;0.50;;
60608;SDS011;48221;53.528;9.884;2022-07-05T01:10:58;0.38;;;0.38;;
60608;SDS011;48221;53.528;9.884;2022-07-05T01:13:24;0.40;;;0.40;;
60608;SDS011;48221;53.528;9.884;2022-07-05T01:15:50;0.32;;;0.32;;
60608;SDS011;48221;53.528;9.884;2022-07-05T01:18:18;0.28;;;0.28;;
60608;SDS011;48221;53.528;9.884;2022-07-05T01:20:47;0.30;;;0.30;;
60608;SDS011;48221;53.528;9.884;2022-07-05T01:23:13;0.43;;;0.38;;
60608;SDS011;48221;53.528;9.884;2022-07-05T01:25:38;0.25;;;0.25;;
60608;SDS011;48221;53.528;9.884;2022-07-05T01:28:04;0.47;;;0.47;;
60608;SDS011;48221;53.528;9.884;2022-07-05T01:30:30;0.47;;;0.47;;
60608;SDS011;48221;53.528;9.884;2022-07-05T01:32:59;0.28;;;0.28;;
60608;SDS011;48221;53.528;9.884;2022-07-05T01:35:24;0.47;;;0.43;;
60608;SDS011;48221;53.528;9.884;2022-07-05T01:37:50;0.35;;;0.35;;
60608;SDS011;48221;53.528;9.884;2022-07-05T01:40:17;1.35;;;0.40;;
60608;SDS011;48221;53.528;9.884;2022-07-05T01:42:44;0.43;;;0.43;;
60608;SDS011;48221;53.528;9.884;2022-07-05T01:45:10;0.40;;;0.40;;
60608;SDS011;48221;53.528;9.884;2022-07-05T01:47:35;1.35;;;0.57;;
60608;SDS011;48221;53.528;9.884;2022-07-05T01:50:04;0.40;;;0.40;;
60608;SDS011;48221;53.528;9.884;2022-07-05T01:52:31;0.32;;;0.32;;
60608;SDS011;48221;53.528;9.884;2022-07-05T01:54:58;0.30;;;0.30;;
60608;SDS011;48221;53.528;9.884;2022-07-05T01:57:26;0.20;;;0.20;;
60608;SDS011;48221;53.528;9.884;2022-07-05T01:59:51;0.45;;;0.45;;
60608;SDS011;48221;53.528;9.884;2022-07-05T02:02:17;0.20;;;0.20;;
60608;SDS011;48221;53.528;9.884;2022-07-05T02:04:42;0.15;;;0.15;;
60608;SDS011;48221;53.528;9.884;2022-07-05T02:07:08;0.25;;;0.25;;
60608;SDS011;48221;53.528;9.884;2022-07-05T02:09:34;0.45;;;0.45;;
60608;SDS011;48221;53.528;9.884;2022-07-05T02:11:59;0.52;;;0.52;;
60608;SDS011;48221;53.528;9.884;2022-07-05T02:14:26;0.47;;;0.47;;
60608;SDS011;48221;53.528;9.884;2022-07-05T02:16:51;0.40;;;0.40;;
60608;SDS011;48221;53.528;9.884;2022-07-05T02:19:17;4.07;;;0.80;;
60608;SDS011;48221;53.528;9.884;2022-07-05T02:21:42;0.52;;;0.52;;
60608;SDS011;48221;53.528;9.884;2022-07-05T02:24:08;0.50;;;0.50;;
60608;SDS011;48221;53.528;9.884;2022-07-05T02:26:33;0.40;;;0.40;;
60608;SDS011;48221;53.528;9.884;2022-07-05T02:28:59;0.75;;;0.75;;
60608;SDS011;48221;53.528;9.884;2022-07-05T02:31:25;1.27;;;0.85;;
60608;SDS011;48221;53.528;9.884;2022-07-05T02:33:50;0.20;;;0.20;;
60608;SDS011;48221;53.528;9.884;2022-07-05T02:36:17;1.15;;;1.05;;
60608;SDS011;48221;53.528;9.884;2022-07-05T02:38:43;0.85;;;0.85;;
60608;SDS011;48221;53.528;9.884;2022-07-05T02:41:08;0.43;;;0.43;;
60608;SDS011;48221;53.528;9.884;2022-07-05T02:43:35;0.50;;;0.50;;
60608;SDS011;48221;53.528;9.884;2022-07-05T02:46:01;0.63;;;0.40;;
60608;SDS011;48221;53.528;9.884;2022-07-05T02:48:27;0.40;;;0.40;;
60608;SDS011;48221;53.528;9.884;2022-07-05T02:50:53;0.50;;;0.50;;
60608;SDS011;48221;53.528;9.884;2022-07-05T02:53:18;0.40;;;0.28;;
60608;SDS011;48221;53.528;9.884;2022-07-05T02:55:43;0.30;;;0.30;;
60608;SDS011;48221;53.528;9.884;2022-07-05T02:58:09;0.45;;;0.45;;
60608;SDS011;48221;53.528;9.884;2022-07-05T03:00:34;0.30;;;0.30;;
60608;SDS011;48221;53.528;9.884;2022-07-05T03:02:59;0.30;;;0.30;;
60608;SDS011;48221;53.528;9.884;2022-07-05T03:05:25;0.40;;;0.40;;
60608;SDS011;48221;53.528;9.884;2022-07-05T03:07:50;0.73;;;0.65;;
60608;SDS011;48221;53.528;9.884;2022-07-05T03:10:15;0.52;;;0.52;;
60608;SDS011;48221;53.528;9.884;2022-07-05T03:12:41;0.45;;;0.45;;
60608;SDS011;48221;53.528;9.884;2022-07-05T03:15:06;0.50;;;0.50;;
60608;SDS011;48221;53.528;9.884;2022-07-05T03:17:32;0.52;;;0.40;;
60608;SDS011;48221;53.528;9.884;2022-07-05T03:19:57;0.80;;;0.80;;
60608;SDS011;48221;53.528;9.884;2022-07-05T03:22:23;0.75;;;0.75;;
60608;SDS011;48221;53.528;9.884;2022-07-05T03:24:48;1.35;;;0.75;;
60608;SDS011;48221;53.528;9.884;2022-07-05T03:27:13;0.65;;;0.65;;
60608;SDS011;48221;53.528;9.884;2022-07-05T03:29:39;0.60;;;0.60;;
60608;SDS011;48221;53.528;9.884;2022-07-05T03:32:04;0.40;;;0.40;;
60608;SDS011;48221;53.528;9.884;2022-07-05T03:34:30;0.55;;;0.55;;
60608;SDS011;48221;53.528;9.884;2022-07-05T03:36:55;0.50;;;0.50;;
60608;SDS011;48221;53.528;9.884;2022-07-05T03:39:21;0.57;;;0.57;;
60608;SDS011;48221;53.528;9.884;2022-07-05T03:41:46;0.63;;;0.63;;
60608;SDS011;48221;53.528;9.884;2022-07-05T03:44:11;0.82;;;0.80;;
60608;SDS011;48221;53.528;9.884;2022-07-05T03:46:37;0.50;;;0.50;;
60608;SDS011;48221;53.528;9.884;2022-07-05T03:49:02;0.70;;;0.70;;
60608;SDS011;48221;53.528;9.884;2022-07-05T03:51:27;0.50;;;0.50;;
60608;SDS011;48221;53.528;9.884;2022-07-05T03:53:53;0.38;;;0.38;;
60608;SDS011;48221;53.528;9.884;2022-07-05T03:56:18;0.30;;;0.30;;
60608;SDS011;48221;53.528;9.884;2022-07-05T03:58:47;0.70;;;0.70;;
60608;SDS011;48221;53.528;9.884;2022-07-05T04:01:13;0.57;;;0.57;;
60608;SDS011;48221;53.528;9.884;2022-07-05T04:03:38;0.30;;;0.30;;
60608;SDS011;48221;53.528;9.884;2022-07-05T04:06:04;0.75;;;0.68;;
60608;SDS011;48221;53.528;9.884;2022-07-05T04:08:29;0.30;;;0.30;;
60608;SDS011;48221;53.528;9.884;2022-07-05T04:10:54;0.57;;;0.57;;
60608;SDS011;48221;53.528;9.884;2022-07-05T04:13:20;0.50;;;0.50;;
60608;SDS011;48221;53.528;9.884;2022-07-05T04:15:45;0.52;;;0.52;;
60608;SDS011;48221;53.528;9.884;2022-07-05T04:18:10;0.65;;;0.60;;
60608;SDS011;48221;53.528;9.884;2022-07-05T04:20:36;0.93;;;0.93;;
60608;SDS011;48221;53.528;9.884;2022-07-05T04:23:01;1.23;;;1.00;;
60608;SDS011;48221;53.528;9.884;2022-07-05T04:25:27;0.80;;;0.80;;
60608;SDS011;48221;53.528;9.884;2022-07-05T04:27:53;0.47;;;0.47;;
60608;SDS011;48221;53.528;9.884;2022-07-05T04:30:20;0.40;;;0.40;;
60608;SDS011;48221;53.528;9.884;2022-07-05T04:32:47;0.73;;;0.73;;
60608;SDS011;48221;53.528;9.884;2022-07-05T04:35:13;0.85;;;0.85;;
60608;SDS011;48221;53.528;9.884;2022-07-05T04:37:39;0.40;;;0.40;;
60608;SDS011;48221;53.528;9.884;2022-07-05T04:40:05;0.50;;;0.50;;
60608;SDS011;48221;53.528;9.884;2022-07-05T04:42:32;0.55;;;0.55;;
60608;SDS011;48221;53.528;9.884;2022-07-05T04:44:58;1.00;;;0.90;;
60608;SDS011;48221;53.528;9.884;2022-07-05T04:47:23;0.73;;;0.65;;
60608;SDS011;48221;53.528;9.884;2022-07-05T04:49:50;5.60;;;1.05;;
60608;SDS011;48221;53.528;9.884;2022-07-05T04:52:16;1.23;;;1.13;;
60608;SDS011;48221;53.528;9.884;2022-07-05T04:54:41;1.40;;;1.30;;
60608;SDS011;48221;53.528;9.884;2022-07-05T04:57:07;0.90;;;0.90;;
60608;SDS011;48221;53.528;9.884;2022-07-05T04:59:32;1.55;;;0.73;;
60608;SDS011;48221;53.528;9.884;2022-07-05T05:01:57;0.60;;;0.60;;
60608;SDS011;48221;53.528;9.884;2022-07-05T05:04:23;0.52;;;0.50;;
60608;SDS011;48221;53.528;9.884;2022-07-05T05:06:48;0.90;;;0.90;;
60608;SDS011;48221;53.528;9.884;2022-07-05T05:09:13;1.08;;;1.00;;
60608;SDS011;48221;53.528;9.884;2022-07-05T05:11:39;1.75;;;0.90;;
60608;SDS011;48221;53.528;9.884;2022-07-05T05:14:04;1.08;;;1.05;;
60608;SDS011;48221;53.528;9.884;2022-07-05T05:16:29;1.63;;;1.48;;
60608;SDS011;48221;53.528;9.884;2022-07-05T05:18:55;2.58;;;1.20;;
60608;SDS011;48221;53.528;9.884;2022-07-05T05:21:20;1.25;;;1.10;;
60608;SDS011;48221;53.528;9.884;2022-07-05T05:23:46;0.77;;;0.77;;
60608;SDS011;48221;53.528;9.884;2022-07-05T05:26:11;0.77;;;0.68;;
60608;SDS011;48221;53.528;9.884;2022-07-05T05:28:36;0.80;;;0.80;;
60608;SDS011;48221;53.528;9.884;2022-07-05T05:31:02;1.10;;;1.00;;
60608;SDS011;48221;53.528;9.884;2022-07-05T05:33:27;0.93;;;0.90;;
60608;SDS011;48221;53.528;9.884;2022-07-05T05:35:53;1.15;;;1.08;;
60608;SDS011;48221;53.528;9.884;2022-07-05T05:38:18;0.68;;;0.68;;
60608;SDS011;48221;53.528;9.884;2022-07-05T05:40:43;0.93;;;0.93;;
60608;SDS011;48221;53.528;9.884;2022-07-05T05:43:09;0.57;;;0.57;;
60608;SDS011;48221;53.528;9.884;2022-07-05T05:45:35;0.82;;;0.82;;
60608;SDS011;48221;53.528;9.884;2022-07-05T05:48:01;1.05;;;0.98;;
60608;SDS011;48221;53.528;9.884;2022-07-05T05:50:30;0.63;;;0.63;;
60608;SDS011;48221;53.528;9.884;2022-07-05T05:53:00;2.22;;;0.85;;
60608;SDS011;48221;53.528;9.884;2022-07-05T05:55:26;0.82;;;0.82;;
60608;SDS011;48221;53.528;9.884;2022-07-05T05:57:53;2.97;;;1.65;;
60608;SDS011;48221;53.528;9.884;2022-07-05T06:00:19;1.90;;;1.38;;
60608;SDS011;48221;53.528;9.884;2022-07-05T06:02:46;1.55;;;0.93;;
60608;SDS011;48221;53.528;9.884;2022-07-05T06:05:13;1.40;;;1.17;;
60608;SDS011;48221;53.528;9.884;2022-07-05T06:10:15;1.00;;;1.00;;
60608;SDS011;48221;53.528;9.884;2022-07-05T06:12:42;0.60;;;0.60;;
60608;SDS011;48221;53.528;9.884;2022-07-05T06:15:07;0.65;;;0.65;;
60608;SDS011;48221;53.528;9.884;2022-07-05T06:17:37;0.88;;;0.88;;
60608;SDS011;48221;53.528;9.884;2022-07-05T06:20:10;0.75;;;0.73;;
60608;SDS011;48221;53.528;9.884;2022-07-05T06:22:36;0.60;;;0.60;;
60608;SDS011;48221;53.528;9.884;2022-07-05T06:25:03;0.52;;;0.52;;
60608;SDS011;48221;53.528;9.884;2022-07-05T06:27:29;1.45;;;1.02;;
60608;SDS011;48221;53.528;9.884;2022-07-05T06:29:54;0.80;;;0.70;;
60608;SDS011;48221;53.528;9.884;2022-07-05T06:32:20;0.60;;;0.60;;
60608;SDS011;48221;53.528;9.884;2022-07-05T06:34:45;1.33;;;1.15;;
60608;SDS011;48221;53.528;9.884;2022-07-05T06:37:10;0.80;;;0.80;;
60608;SDS011;48221;53.528;9.884;2022-07-05T06:39:35;0.40;;;0.40;;
60608;SDS011;48221;53.528;9.884;2022-07-05T06:42:01;1.05;;;0.80;;
60608;SDS011;48221;53.528;9.884;2022-07-05T06:44:27;0.65;;;0.65;;
60608;SDS011;48221;53.528;9.884;2022-07-05T06:46:52;0.52;;;0.52;;
60608;SDS011;48221;53.528;9.884;2022-07-05T06:49:18;0.80;;;0.80;;
60608;SDS011;48221;53.528;9.884;2022-07-05T06:51:43;1.50;;;1.10;;
60608;SDS011;48221;53.528;9.884;2022-07-05T06:54:09;0.77;;;0.75;;
60608;SDS011;48221;53.528;9.884;2022-07-05T06:56:34;0.65;;;0.65;;
60608;SDS011;48221;53.528;9.884;2022-07-05T06:58:59;0.52;;;0.50;;
60608;SDS011;48221;53.528;9.884;2022-07-05T07:01:25;0.70;;;0.70;;
60608;SDS011;48221;53.528;9.884;2022-07-05T07:03:50;0.60;;;0.60;;
60608;SDS011;48221;53.528;9.884;2022-07-05T07:06:15;1.23;;;1.00;;
60608;SDS011;48221;53.528;9.884;2022-07-05T07:08:41;0.52;;;0.52;;
60608;SDS011;48221;53.528;9.884;2022-07-05T07:11:25;1.48;;;0.80;;
60608;SDS011;48221;53.528;9.884;2022-07-05T07:13:50;1.05;;;0.95;;
60608;SDS011;48221;53.528;9.884;2022-07-05T07:16:15;0.57;;;0.57;;
60608;SDS011;48221;53.528;9.884;2022-07-05T07:18:41;0.60;;;0.60;;
60608;SDS011;48221;53.528;9.884;2022-07-05T07:21:06;0.60;;;0.60;;
60608;SDS011;48221;53.528;9.884;2022-07-05T07:23:31;0.65;;;0.65;;
60608;SDS011;48221;53.528;9.884;2022-07-05T07:25:57;0.50;;;0.50;;
60608;SDS011;48221;53.528;9.884;2022-07-05T07:28:23;1.35;;;0.70;;
60608;SDS011;48221;53.528;9.884;2022-07-05T07:30:49;1.55;;;0.63;;
60608;SDS011;48221;53.528;9.884;2022-07-05T07:33:14;0.70;;;0.70;;
60608;SDS011;48221;53.528;9.884;2022-07-05T07:35:39;0.90;;;0.60;;
60608;SDS011;48221;53.528;9.884;2022-07-05T07:38:05;0.60;;;0.60;;
60608;SDS011;48221;53.528;9.884;2022-07-05T07:40:30;1.05;;;0.95;;
60608;SDS011;48221;53.528;9.884;2022-07-05T07:42:55;0.85;;;0.68;;
60608;SDS011;48221;53.528;9.884;2022-07-05T07:45:21;0.75;;;0.75;;
60608;SDS011;48221;53.528;9.884;2022-07-05T07:47:46;1.08;;;0.95;;
60608;SDS011;48221;53.528;9.884;2022-07-05T07:50:11;0.75;;;0.63;;
60608;SDS011;48221;53.528;9.884;2022-07-05T07:52:37;0.60;;;0.60;;
60608;SDS011;48221;53.528;9.884;2022-07-05T07:55:03;0.85;;;0.82;;
60608;SDS011;48221;53.528;9.884;2022-07-05T07:57:29;0.47;;;0.47;;
60608;SDS011;48221;53.528;9.884;2022-07-05T07:59:55;0.73;;;0.70;;
60608;SDS011;48221;53.528;9.884;2022-07-05T08:02:21;0.65;;;0.65;;
60608;SDS011;48221;53.528;9.884;2022-07-05T08:04:48;2.38;;;0.70;;
60608;SDS011;48221;53.528;9.884;2022-07-05T08:07:16;0.28;;;0.28;;
60608;SDS011;48221;53.528;9.884;2022-07-05T08:09:43;0.43;;;0.43;;
60608;SDS011;48221;53.528;9.884;2022-07-05T08:12:08;0.95;;;0.70;;
60608;SDS011;48221;53.528;9.884;2022-07-05T08:14:34;1.13;;;0.57;;
60608;SDS011;48221;53.528;9.884;2022-07-05T08:16:59;0.30;;;0.30;;
60608;SDS011;48221;53.528;9.884;2022-07-05T08:19:24;0.40;;;0.40;;
60608;SDS011;48221;53.528;9.884;2022-07-05T08:22:09;0.55;;;0.55;;
60608;SDS011;48221;53.528;9.884;2022-07-05T08:24:35;0.70;;;0.57;;
60608;SDS011;48221;53.528;9.884;2022-07-05T08:27:02;0.60;;;0.60;;
60608;SDS011;48221;53.528;9.884;2022-07-05T08:29:27;0.50;;;0.50;;
60608;SDS011;48221;53.528;9.884;2022-07-05T08:31:53;0.68;;;0.60;;
60608;SDS011;48221;53.528;9.884;2022-07-05T08:34:18;0.30;;;0.30;;
60608;SDS011;48221;53.528;9.884;2022-07-05T08:36:45;1.33;;;0.52;;
60608;SDS011;48221;53.528;9.884;2022-07-05T08:39:11;0.75;;;0.43;;
60608;SDS011;48221;53.528;9.884;2022-07-05T08:41:37;0.65;;;0.65;;
60608;SDS011;48221;53.528;9.884;2022-07-05T08:44:04;0.40;;;0.40;;
60608;SDS011;48221;53.528;9.884;2022-07-05T08:46:30;0.43;;;0.43;;
60608;SDS011;48221;53.528;9.884;2022-07-05T08:48:58;0.60;;;0.60;;
60608;SDS011;48221;53.528;9.884;2022-07-05T08:51:25;0.43;;;0.43;;
60608;SDS011;48221;53.528;9.884;2022-07-05T08:53:52;3.42;;;0.50;;
60608;SDS011;48221;53.528;9.884;2022-07-05T08:56:19;0.60;;;0.60;;
60608;SDS011;48221;53.528;9.884;2022-07-05T08:58:45;0.20;;;0.20;;
60608;SDS011;48221;53.528;9.884;2022-07-05T09:01:11;0.52;;;0.30;;
60608;SDS011;48221;53.528;9.884;2022-07-05T09:03:44;0.20;;;0.20;;
60608;SDS011;48221;53.528;9.884;2022-07-05T09:06:12;0.10;;;0.10;;
60608;SDS011;48221;53.528;9.884;2022-07-05T09:08:41;0.45;;;0.45;;
60608;SDS011;48221;53.528;9.884;2022-07-05T09:11:07;0.30;;;0.30;;
60608;SDS011;48221;53.528;9.884;2022-07-05T09:13:35;0.70;;;0.70;;
60608;SDS011;48221;53.528;9.884;2022-07-05T09:16:02;0.30;;;0.30;;
60608;SDS011;48221;53.528;9.884;2022-07-05T09:21:29;0.28;;;0.28;;
60608;SDS011;48221;53.528;9.884;2022-07-05T09:24:04;0.30;;;0.30;;
60608;SDS011;48221;53.528;9.884;2022-07-05T09:26:32;0.45;;;0.45;;
60608;SDS011;48221;53.528;9.884;2022-07-05T09:28:57;0.50;;;0.50;;
60608;SDS011;48221;53.528;9.884;2022-07-05T09:31:30;0.50;;;0.50;;
60608;SDS011;48221;53.528;9.884;2022-07-05T09:36:56;0.30;;;0.30;;
60608;SDS011;48221;53.528;9.884;2022-07-05T09:44:38;0.38;;;0.38;;
60608;SDS011;48221;53.528;9.884;2022-07-05T09:47:09;0.30;;;0.30;;
60608;SDS011;48221;53.528;9.884;2022-07-05T09:49:43;0.10;;;0.10;;
60608;SDS011;48221;53.528;9.884;2022-07-05T09:52:12;0.20;;;0.20;;
60608;SDS011;48221;53.528;9.884;2022-07-05T09:55:10;0.55;;;0.45;;
60608;SDS011;48221;53.528;9.884;2022-07-05T09:57:39;0.28;;;0.28;;
60608;SDS011;48221;53.528;9.884;2022-07-05T10:00:16;0.43;;;0.43;;
60608;SDS011;48221;53.528;9.884;2022-07-05T10:07:43;0.40;;;0.35;;
60608;SDS011;48221;53.528;9.884;2022-07-05T10:10:13;0.50;;;0.50;;
60608;SDS011;48221;53.528;9.884;2022-07-05T10:12:41;0.40;;;0.40;;
60608;SDS011;48221;53.528;9.884;2022-07-05T10:15:08;0.55;;;0.47;;
60608;SDS011;48221;53.528;9.884;2022-07-05T10:17:42;0.50;;;0.50;;
60608;SDS011;48221;53.528;9.884;2022-07-05T10:22:53;1.02;;;0.52;;
60608;SDS011;48221;53.528;9.884;2022-07-05T10:25:19;0.68;;;0.63;;
60608;SDS011;48221;53.528;9.884;2022-07-05T10:27:47;0.65;;;0.65;;
60608;SDS011;48221;53.528;9.884;2022-07-05T10:30:18;0.30;;;0.30;;
60608;SDS011;48221;53.528;9.884;2022-07-05T10:32:43;0.90;;;0.57;;
60608;SDS011;48221;53.528;9.884;2022-07-05T10:35:09;0.45;;;0.45;;
60608;SDS011;48221;53.528;9.884;2022-07-05T10:37:35;0.40;;;0.40;;
60608;SDS011;48221;53.528;9.884;2022-07-05T10:40:02;0.85;;;0.47;;
60608;SDS011;48221;53.528;9.884;2022-07-05T10:45:27;1.55;;;0.40;;
60608;SDS011;48221;53.528;9.884;2022-07-05T10:50:48;0.20;;;0.20;;
60608;SDS011;48221;53.528;9.884;2022-07-05T10:53:14;0.30;;;0.30;;
60608;SDS011;48221;53.528;9.884;2022-07-05T10:55:57;1.35;;;0.63;;
60608;SDS011;48221;53.528;9.884;2022-07-05T11:03:37;0.57;;;0.40;;
60608;SDS011;48221;53.528;9.884;2022-07-05T11:06:03;0.50;;;0.40;;
60608;SDS011;48221;53.528;9.884;2022-07-05T11:08:29;0.98;;;0.60;;
60608;SDS011;48221;53.528;9.884;2022-07-05T11:13:41;0.20;;;0.20;;
60608;SDS011;48221;53.528;9.884;2022-07-05T11:19:07;0.25;;;0.25;;
60608;SDS011;48221;53.528;9.884;2022-07-05T11:21:33;0.82;;;0.50;;
60608;SDS011;48221;53.528;9.884;2022-07-05T11:26:47;0.30;;;0.30;;
60608;SDS011;48221;53.528;9.884;2022-07-05T11:29:39;0.32;;;0.32;;
60608;SDS011;48221;53.528;9.884;2022-07-05T11:34:49;0.32;;;0.32;;
60608;SDS011;48221;53.528;9.884;2022-07-05T11:37:24;0.40;;;0.40;;
60608;SDS011;48221;53.528;9.884;2022-07-05T11:42:31;0.77;;;0.77;;
60608;SDS011;48221;53.528;9.884;2022-07-05T11:45:02;0.40;;;0.40;;
60608;SDS011;48221;53.528;9.884;2022-07-05T11:47:29;0.30;;;0.30;;
60608;SDS011;48221;53.528;9.884;2022-07-05T11:49:56;0.35;;;0.35;;
60608;SDS011;48221;53.528;9.884;2022-07-05T11:52:30;0.30;;;0.30;;
60608;SDS011;48221;53.528;9.884;2022-07-05T11:54:58;0.20;;;0.20;;
60608;SDS011;48221;53.528;9.884;2022-07-05T11:57:25;0.28;;;0.28;;
60608;SDS011;48221;53.528;9.884;2022-07-05T11:59:50;0.20;;;0.20;;
60608;SDS011;48221;53.528;9.884;2022-07-05T12:02:16;0.30;;;0.30;;
60608;SDS011;48221;53.528;9.884;2022-07-05T12:07:27;0.40;;;0.40;;
60608;SDS011;48221;53.528;9.884;2022-07-05T12:09:52;0.47;;;0.47;;
60608;SDS011;48221;53.528;9.884;2022-07-05T12:12:36;0.40;;;0.40;;
60608;SDS011;48221;53.528;9.884;2022-07-05T12:15:18;0.43;;;0.32;;
60608;SDS011;48221;53.528;9.884;2022-07-05T12:17:47;0.25;;;0.25;;
60608;SDS011;48221;53.528;9.884;2022-07-05T12:20:14;0.20;;;0.20;;
60608;SDS011;48221;53.528;9.884;2022-07-05T12:22:45;0.38;;;0.38;;
60608;SDS011;48221;53.528;9.884;2022-07-05T12:25:13;0.50;;;0.50;;
60608;SDS011;48221;53.528;9.884;2022-07-05T12:27:43;0.30;;;0.30;;
60608;SDS011;48221;53.528;9.884;2022-07-05T12:30:12;0.20;;;0.20;;
60608;SDS011;48221;53.528;9.884;2022-07-05T12:33:00;0.15;;;0.15;;
60608;SDS011;48221;53.528;9.884;2022-07-05T12:35:31;0.40;;;0.40;;
60608;SDS011;48221;53.528;9.884;2022-07-05T12:38:09;0.30;;;0.30;;
60608;SDS011;48221;53.528;9.884;2022-07-05T12:40:40;0.20;;;0.20;;
60608;SDS011;48221;53.528;9.884;2022-07-05T12:43:11;0.63;;;0.63;;
60608;SDS011;48221;53.528;9.884;2022-07-05T12:45:38;0.30;;;0.30;;
60608;SDS011;48221;53.528;9.884;2022-07-05T12:48:05;0.43;;;0.43;;
60608;SDS011;48221;53.528;9.884;2022-07-05T12:50:50;0.28;;;0.28;;
60608;SDS011;48221;53.528;9.884;2022-07-05T12:53:17;0.20;;;0.20;;
60608;SDS011;48221;53.528;9.884;2022-07-05T12:56:09;0.27;;;0.27;;
60608;SDS011;48221;53.528;9.884;2022-07-05T12:58:55;0.30;;;0.30;;
60608;SDS011;48221;53.528;9.884;2022-07-05T13:01:23;0.20;;;0.20;;
60608;SDS011;48221;53.528;9.884;2022-07-05T13:04:02;0.15;;;0.15;;
60608;SDS011;48221;53.528;9.884;2022-07-05T13:12:07;0.50;;;0.50;;
60608;SDS011;48221;53.528;9.884;2022-07-05T13:14:33;0.40;;;0.40;;
60608;SDS011;48221;53.528;9.884;2022-07-05T13:17:00;0.35;;;0.35;;
60608;SDS011;48221;53.528;9.884;2022-07-05T13:19:25;0.38;;;0.38;;
60608;SDS011;48221;53.528;9.884;2022-07-05T13:21:51;0.28;;;0.28;;
60608;SDS011;48221;53.528;9.884;2022-07-05T13:24:16;0.22;;;0.22;;
60608;SDS011;48221;53.528;9.884;2022-07-05T13:26:41;0.40;;;0.40;;
60608;SDS011;48221;53.528;9.884;2022-07-05T13:29:07;0.20;;;0.20;;
60608;SDS011;48221;53.528;9.884;2022-07-05T13:31:32;0.30;;;0.30;;
60608;SDS011;48221;53.528;9.884;2022-07-05T13:33:58;0.17;;;0.17;;
60608;SDS011;48221;53.528;9.884;2022-07-05T13:36:24;0.40;;;0.40;;
60608;SDS011;48221;53.528;9.884;2022-07-05T13:38:50;0.30;;;0.30;;
60608;SDS011;48221;53.528;9.884;2022-07-05T13:41:16;1.08;;;0.68;;
60608;SDS011;48221;53.528;9.884;2022-07-05T13:43:41;1.73;;;0.60;;
60608;SDS011;48221;53.528;9.884;2022-07-05T13:46:09;0.30;;;0.30;;
60608;SDS011;48221;53.528;9.884;2022-07-05T13:48:34;0.70;;;0.65;;
60608;SDS011;48221;53.528;9.884;2022-07-05T13:50:59;0.38;;;0.38;;
60608;SDS011;48221;53.528;9.884;2022-07-05T13:53:25;0.75;;;0.45;;
60608;SDS011;48221;53.528;9.884;2022-07-05T13:55:50;0.50;;;0.50;;
60608;SDS011;48221;53.528;9.884;2022-07-05T13:58:15;0.40;;;0.40;;
60608;SDS011;48221;53.528;9.884;2022-07-05T14:00:41;0.90;;;0.50;;
60608;SDS011;48221;53.528;9.884;2022-07-05T14:03:09;0.47;;;0.47;;
60608;SDS011;48221;53.528;9.884;2022-07-05T14:05:34;0.20;;;0.20;;
60608;SDS011;48221;53.528;9.884;2022-07-05T14:07:59;0.82;;;0.73;;
60608;SDS011;48221;53.528;9.884;2022-07-05T14:10:25;0.52;;;0.52;;
60608;SDS011;48221;53.528;9.884;2022-07-05T14:12:50;1.95;;;0.63;;
60608;SDS011;48221;53.528;9.884;2022-07-05T14:15:15;0.55;;;0.55;;
60608;SDS011;48221;53.528;9.884;2022-07-05T14:17:41;1.33;;;0.43;;
60608;SDS011;48221;53.528;9.884;2022-07-05T14:20:06;0.30;;;0.30;;
60608;SDS011;48221;53.528;9.884;2022-07-05T14:22:32;0.55;;;0.55;;
60608;SDS011;48221;53.528;9.884;2022-07-05T14:24:57;4.32;;;0.93;;
60608;SDS011;48221;53.528;9.884;2022-07-05T14:27:23;1.10;;;0.60;;
60608;SDS011;48221;53.528;9.884;2022-07-05T14:29:48;0.28;;;0.28;;
60608;SDS011;48221;53.528;9.884;2022-07-05T14:32:13;0.52;;;0.40;;
60608;SDS011;48221;53.528;9.884;2022-07-05T14:34:39;0.40;;;0.40;;
60608;SDS011;48221;53.528;9.884;2022-07-05T14:37:04;0.63;;;0.63;;
60608;SDS011;48221;53.528;9.884;2022-07-05T14:39:30;0.77;;;0.40;;
60608;SDS011;48221;53.528;9.884;2022-07-05T14:41:55;0.38;;;0.38;;
60608;SDS011;48221;53.528;9.884;2022-07-05T14:44:20;0.30;;;0.30;;
60608;SDS011;48221;53.528;9.884;2022-07-05T14:46:46;0.20;;;0.20;;
60608;SDS011;48221;53.528;9.884;2022-07-05T14:49:11;0.95;;;0.47;;
60608;SDS011;48221;53.528;9.884;2022-07-05T14:51:36;0.38;;;0.38;;
60608;SDS011;48221;53.528;9.884;2022-07-05T14:54:02;0.30;;;0.30;;
60608;SDS011;48221;53.528;9.884;2022-07-05T14:56:27;4.78;;;0.38;;
60608;SDS011;48221;53.528;9.884;2022-07-05T14:58:53;0.38;;;0.38;;
60608;SDS011;48221;53.528;9.884;2022-07-05T15:03:53;0.73;;;0.50;;
60608;SDS011;48221;53.528;9.884;2022-07-05T15:06:19;0.10;;;0.10;;
60608;SDS011;48221;53.528;9.884;2022-07-05T15:08:44;0.30;;;0.30;;
60608;SDS011;48221;53.528;9.884;2022-07-05T15:11:10;1.08;;;0.63;;
60608;SDS011;48221;53.528;9.884;2022-07-05T15:13:35;0.28;;;0.28;;
60608;SDS011;48221;53.528;9.884;2022-07-05T15:16:00;2.03;;;0.70;;
60608;SDS011;48221;53.528;9.884;2022-07-05T15:18:26;0.50;;;0.50;;
60608;SDS011;48221;53.528;9.884;2022-07-05T15:20:52;0.50;;;0.50;;
60608;SDS011;48221;53.528;9.884;2022-07-05T15:23:18;0.45;;;0.45;;
60608;SDS011;48221;53.528;9.884;2022-07-05T15:25:44;0.50;;;0.50;;
60608;SDS011;48221;53.528;9.884;2022-07-05T15:28:10;0.30;;;0.30;;
60608;SDS011;48221;53.528;9.884;2022-07-05T15:30:36;1.23;;;0.70;;
60608;SDS011;48221;53.528;9.884;2022-07-05T15:33:02;0.30;;;0.30;;
60608;SDS011;48221;53.528;9.884;2022-07-05T15:35:28;0.30;;;0.30;;
60608;SDS011;48221;53.528;9.884;2022-07-05T15:37:54;0.70;;;0.57;;
60608;SDS011;48221;53.528;9.884;2022-07-05T15:40:19;0.38;;;0.38;;
60608;SDS011;48221;53.528;9.884;2022-07-05T15:42:44;0.30;;;0.30;;